createdAt,value
2022-09-24T00:01:25.861Z,100420.59
2022-09-24T00:03:57.022Z,100409.66
2022-09-24T00:06:34.475Z,100412.56
2022-09-24T00:09:03.534Z,100405.97
2022-09-24T00:11:33.380Z,100406.16
2022-09-24T00:14:01.915Z,100417.28
2022-09-24T00:16:34.851Z,100403.28
2022-09-24T00:19:05.548Z,100399.56
2022-09-24T00:21:36.842Z,100410.50
2022-09-24T00:24:07.931Z,100408.44
2022-09-24T00:26:51.991Z,100394.00
2022-09-24T00:29:21.934Z,100393.59
2022-09-24T00:31:50.977Z,100397.69
2022-09-24T00:34:20.113Z,100400.38
2022-09-24T00:36:48.484Z,100396.88
2022-09-24T00:39:17.386Z,100389.03
2022-09-24T00:41:49.453Z,100395.59
2022-09-24T00:44:49.034Z,100392.34
2022-09-24T00:47:23.209Z,100395.59
2022-09-24T00:49:52.314Z,100393.94
2022-09-24T00:52:20.994Z,100388.00
2022-09-24T00:54:50.143Z,100395.81
2022-09-24T00:57:19.804Z,100388.00
2022-09-24T00:59:47.920Z,100381.63
2022-09-24T01:02:16.163Z,100393.94
2022-09-24T01:04:45.888Z,100392.09
2022-09-24T01:07:13.920Z,100388.59
2022-09-24T01:09:42.472Z,100393.75
2022-09-24T01:12:18.477Z,100392.72
2022-09-24T01:15:04.165Z,100386.97
2022-09-24T01:17:38.574Z,100394.19
2022-09-24T01:20:42.421Z,100378.31
2022-09-24T01:23:36.334Z,100386.97
2022-09-24T01:26:20.188Z,100383.47
2022-09-24T01:29:06.225Z,100379.97
2022-09-24T01:31:44.770Z,100389.88
2022-09-24T01:34:16.754Z,100384.91
2022-09-24T01:36:47.719Z,100394.81
2022-09-24T01:39:16.007Z,100382.69
2022-09-24T01:41:44.947Z,100381.41
2022-09-24T01:44:14.363Z,100392.97
2022-09-24T01:46:44.918Z,100387.22
2022-09-24T01:49:13.204Z,100382.06
2022-09-24T01:51:48.349Z,100382.25
2022-09-24T01:54:22.163Z,100385.75
2022-09-24T01:56:55.763Z,100377.53
2022-09-24T01:59:28.535Z,100377.31
2022-09-24T02:02:09.129Z,100387.81
2022-09-24T02:04:42.666Z,100378.97
2022-09-24T02:07:14.055Z,100378.97
2022-09-24T02:09:44.420Z,100373.81
2022-09-24T02:12:17.887Z,100379.38
2022-09-24T02:14:50.670Z,100377.75
2022-09-24T02:17:20.979Z,100372.78
2022-09-24T02:19:51.427Z,100367.22
2022-09-24T02:22:19.868Z,100368.47
2022-09-24T02:24:51.122Z,100360.03
2022-09-24T02:27:19.958Z,100359.63
2022-09-24T02:29:48.076Z,100359.63
2022-09-24T02:32:21.210Z,100370.53
2022-09-24T02:34:54.100Z,100366.19
2022-09-24T02:37:25.162Z,100371.56
2022-09-24T02:39:53.268Z,100362.47
2022-09-24T02:42:21.938Z,100366.00
2022-09-24T02:44:50.843Z,100374.03
2022-09-24T02:47:21.046Z,100368.47
2022-09-24T02:49:49.520Z,100373.22
2022-09-24T02:52:18.860Z,100369.69
2022-09-24T02:54:48.221Z,100368.50
2022-09-24T02:57:16.355Z,100364.78
2022-09-24T02:59:44.425Z,100366.44
2022-09-24T03:02:15.315Z,100360.25
2022-09-24T03:04:49.875Z,100359.44
2022-09-24T03:07:18.410Z,100358.59
2022-09-24T03:09:46.499Z,100364.16
2022-09-24T03:12:14.718Z,100368.72
2022-09-24T03:14:42.886Z,100372.22
2022-09-24T03:17:10.980Z,100370.34
2022-09-24T03:19:39.540Z,100372.00
2022-09-24T03:22:09.188Z,100360.47
2022-09-24T03:24:37.911Z,100365.59
2022-09-24T03:27:06.055Z,100363.53
2022-09-24T03:29:52.761Z,100358.00
2022-09-24T03:32:22.259Z,100364.78
2022-09-24T03:34:50.423Z,100355.50
2022-09-24T03:37:20.000Z,100360.22
2022-09-24T03:39:48.558Z,100361.88
2022-09-24T03:42:16.704Z,100353.25
2022-09-24T03:44:44.899Z,100357.53
2022-09-24T03:47:13.048Z,100347.06
2022-09-24T03:49:41.169Z,100350.16
2022-09-24T03:52:09.162Z,100351.59
2022-09-24T03:54:38.908Z,100353.25
2022-09-24T03:57:07.113Z,100339.22
2022-09-24T03:59:35.666Z,100343.75
2022-09-24T04:02:03.872Z,100351.19
2022-09-24T04:04:35.801Z,100342.13
2022-09-24T04:07:03.958Z,100339.88
2022-09-24T04:09:32.243Z,100345.00
2022-09-24T04:12:01.840Z,100340.47
2022-09-24T04:14:30.024Z,100339.63
2022-09-24T04:16:59.075Z,100343.16
2022-09-24T04:19:27.940Z,100340.72
2022-09-24T04:21:55.990Z,100347.91
2022-09-24T04:24:24.260Z,100341.31
2022-09-24T04:26:52.827Z,100349.97
2022-09-24T04:29:22.443Z,100338.22
2022-09-24T04:31:50.582Z,100350.38
2022-09-24T04:34:19.150Z,100338.66
2022-09-24T04:36:47.365Z,100353.31
2022-09-24T04:39:15.822Z,100347.13
2022-09-24T04:41:43.924Z,100357.84
2022-09-24T04:44:13.604Z,100356.59
2022-09-24T04:46:43.848Z,100348.16
2022-09-24T04:49:12.424Z,100359.91
2022-09-24T04:51:40.500Z,100359.91
2022-09-24T04:54:10.637Z,100357.41
2022-09-24T04:56:38.754Z,100362.56
2022-09-24T04:59:07.020Z,100363.59
2022-09-24T05:01:35.434Z,100353.50
2022-09-24T05:04:05.510Z,100351.84
2022-09-24T05:06:33.536Z,100362.38
2022-09-24T05:09:02.021Z,100360.50
2022-09-24T05:11:30.197Z,100358.84
2022-09-24T05:13:58.221Z,100365.88
2022-09-24T05:16:26.753Z,100369.13
2022-09-24T05:18:55.487Z,100364.84
2022-09-24T05:21:25.222Z,100364.41
2022-09-24T05:23:53.416Z,100368.53
2022-09-24T05:26:39.035Z,100375.13
2022-09-24T05:29:07.204Z,100370.38
2022-09-24T05:31:35.588Z,100368.53
2022-09-24T05:34:03.940Z,100377.59
2022-09-24T05:36:33.550Z,100375.31
2022-09-24T05:39:01.817Z,100372.41
2022-09-24T05:41:30.048Z,100381.28
2022-09-24T05:43:58.833Z,100373.25
2022-09-24T05:46:27.160Z,100389.50
2022-09-24T05:48:55.979Z,100381.47
2022-09-24T05:51:24.618Z,100391.81
2022-09-24T05:53:54.378Z,100388.50
2022-09-24T05:56:26.121Z,100395.28
2022-09-24T05:58:54.966Z,100384.97
2022-09-24T06:01:23.229Z,100392.38
2022-09-24T06:03:51.513Z,100384.91
2022-09-24T06:06:19.756Z,100395.84
2022-09-24T06:08:47.878Z,100386.34
2022-09-24T06:11:22.871Z,100382.81
2022-09-24T06:13:51.614Z,100390.22
2022-09-24T06:16:36.084Z,100397.00
2022-09-24T06:19:04.317Z,100396.97
2022-09-24T06:21:32.491Z,100376.34
2022-09-24T06:24:00.570Z,100390.94
2022-09-24T06:26:31.257Z,100393.41
2022-09-24T06:29:04.407Z,100396.72
2022-09-24T06:31:39.657Z,100385.38
2022-09-24T06:34:07.861Z,100398.34
2022-09-24T06:36:36.569Z,100398.94
2022-09-24T06:39:04.998Z,100405.94
2022-09-24T06:41:34.709Z,100403.25
2022-09-24T06:44:03.278Z,100406.69
2022-09-24T06:46:34.298Z,100395.81
2022-09-24T06:49:02.491Z,100403.38
2022-09-24T06:51:33.668Z,100401.53
2022-09-24T06:54:01.786Z,100410.19
2022-09-24T06:56:31.189Z,100404.00
2022-09-24T06:59:00.778Z,100407.09
2022-09-24T07:01:30.542Z,100408.31
2022-09-24T07:03:59.115Z,100397.19
2022-09-24T07:06:47.321Z,100408.69
2022-09-24T07:09:15.437Z,100412.66
2022-09-24T07:11:45.178Z,100396.38
2022-09-24T07:14:15.571Z,100410.56
2022-09-24T07:16:47.151Z,100409.97
2022-09-24T07:19:40.990Z,100413.47
2022-09-24T07:22:09.577Z,100417.78
2022-09-24T07:24:38.004Z,100416.53
2022-09-24T07:27:07.657Z,100413.03
2022-09-24T07:29:37.646Z,100414.72
2022-09-24T07:32:06.281Z,100421.09
2022-09-24T07:34:38.427Z,100417.56
2022-09-24T07:37:06.433Z,100416.38
2022-09-24T07:39:34.659Z,100411.84
2022-09-24T07:42:03.641Z,100416.13
2022-09-24T07:44:31.674Z,100415.63
2022-09-24T07:47:01.289Z,100410.88
2022-09-24T07:49:32.252Z,100419.94
2022-09-24T07:52:00.600Z,100416.16
2022-09-24T07:54:30.666Z,100423.09
2022-09-24T07:56:58.986Z,100423.44
2022-09-24T07:59:27.047Z,100423.72
2022-09-24T08:01:55.853Z,100423.59
2022-09-24T08:04:25.503Z,100428.00
2022-09-24T08:06:53.524Z,100429.31
2022-09-24T08:09:21.565Z,100431.03
2022-09-24T08:11:51.339Z,100431.94
2022-09-24T08:14:19.478Z,100439.25
2022-09-24T08:16:47.554Z,100432.28
2022-09-24T08:19:15.848Z,100437.84
2022-09-24T08:21:54.443Z,100434.84
2022-09-24T08:24:22.522Z,100438.44
2022-09-24T08:26:50.657Z,100438.47
2022-09-24T08:29:18.622Z,100438.38
2022-09-24T08:31:47.476Z,100438.75
2022-09-24T08:34:15.701Z,100440.66
2022-09-24T08:36:45.928Z,100445.47
2022-09-24T08:39:15.607Z,100435.81
2022-09-24T08:41:54.700Z,100432.75
2022-09-24T08:44:47.965Z,100430.91
2022-09-24T08:47:34.116Z,100436.25
2022-09-24T08:50:10.410Z,100432.59
2022-09-24T08:52:59.281Z,100430.63
2022-09-24T08:55:35.735Z,100430.38
2022-09-24T08:58:18.626Z,100429.31
2022-09-24T09:00:52.850Z,100429.44
2022-09-24T09:03:30.389Z,100434.47
2022-09-24T09:06:03.306Z,100424.41
2022-09-24T09:09:05.239Z,100426.38
2022-09-24T09:11:33.849Z,100431.31
2022-09-24T09:14:07.703Z,100422.53
2022-09-24T09:16:46.232Z,100427.91
2022-09-24T09:19:17.894Z,100418.16
2022-09-24T09:21:52.776Z,100423.66
2022-09-24T09:24:27.616Z,100419.03
2022-09-24T09:26:58.392Z,100427.91
2022-09-24T09:29:31.810Z,100422.47
2022-09-24T09:32:10.917Z,100424.94
2022-09-24T09:34:59.486Z,100424.06
2022-09-24T09:37:36.512Z,100424.34
2022-09-24T09:40:31.703Z,100424.59
2022-09-24T09:43:04.063Z,100419.88
2022-09-24T09:45:37.303Z,100411.59
2022-09-24T09:48:06.978Z,100414.97
2022-09-24T09:50:39.729Z,100413.97
2022-09-24T09:53:19.277Z,100415.13
2022-09-24T09:55:54.447Z,100411.66
2022-09-24T09:58:36.092Z,100422.09
2022-09-24T10:01:07.304Z,100420.25
2022-09-24T10:03:49.176Z,100417.06
2022-09-24T10:06:25.474Z,100411.66
2022-09-24T10:08:53.954Z,100413.09
2022-09-24T10:11:24.102Z,100411.53
2022-09-24T10:14:03.418Z,100406.41
2022-09-24T10:16:32.081Z,100408.06
2022-09-24T10:19:00.320Z,100404.28
2022-09-24T10:21:34.608Z,100409.28
2022-09-24T10:24:05.365Z,100404.69
2022-09-24T10:26:44.853Z,100411.47
2022-09-24T10:29:33.996Z,100405.56
2022-09-24T10:32:03.026Z,100401.22
2022-09-24T10:34:31.515Z,100402.63
2022-09-24T10:37:01.982Z,100406.72
2022-09-24T10:39:30.542Z,100415.41
2022-09-24T10:42:24.888Z,100407.28
2022-09-24T10:44:53.975Z,100411.06
2022-09-24T10:47:28.544Z,100412.47
2022-09-24T10:50:26.067Z,100411.69
2022-09-24T10:52:56.360Z,100414.81
2022-09-24T10:55:47.456Z,100414.84
2022-09-24T10:58:35.839Z,100421.75
2022-09-24T11:01:17.448Z,100405.16
2022-09-24T11:04:13.522Z,100406.09
2022-09-24T11:06:53.396Z,100407.25
2022-09-24T11:09:29.964Z,100401.56
2022-09-24T11:12:08.245Z,100407.00
2022-09-24T11:14:53.876Z,100402.97
2022-09-24T11:17:35.514Z,100398.91
2022-09-24T11:20:17.678Z,100398.09
2022-09-24T11:22:59.625Z,100393.44
2022-09-24T11:25:36.797Z,100397.22
2022-09-24T11:28:21.734Z,100380.66
2022-09-24T11:30:59.681Z,100393.75
2022-09-24T11:33:38.097Z,100387.22
2022-09-24T11:36:15.807Z,100388.88
2022-09-24T11:39:09.886Z,100388.63
2022-09-24T11:41:49.867Z,100386.00
2022-09-24T11:44:54.407Z,100384.16
2022-09-24T11:47:39.173Z,100386.56
2022-09-24T11:50:22.132Z,100391.31
2022-09-24T11:52:58.521Z,100385.66
2022-09-24T11:55:34.418Z,100392.88
2022-09-24T11:58:13.734Z,100398.63
2022-09-24T12:00:47.709Z,100392.94
2022-09-24T12:03:26.112Z,100391.91
2022-09-24T12:06:01.163Z,100387.34
2022-09-24T12:08:36.444Z,100397.94
2022-09-24T12:11:11.587Z,100397.16
2022-09-24T12:13:43.264Z,100396.44
2022-09-24T12:16:14.900Z,100401.09
2022-09-24T12:18:51.427Z,100385.78
2022-09-24T12:21:27.365Z,100395.50
2022-09-24T12:24:03.036Z,100398.72
2022-09-24T12:26:32.441Z,100404.63
2022-09-24T12:29:49.456Z,100402.88
2022-09-24T12:32:44.320Z,100396.25
2022-09-24T12:35:23.954Z,100403.53
2022-09-24T12:37:57.658Z,100399.88
2022-09-24T12:40:47.333Z,100399.97
2022-09-24T12:43:25.440Z,100401.50
2022-09-24T12:45:57.971Z,100400.34
2022-09-24T12:48:27.426Z,100400.69
2022-09-24T12:51:10.365Z,100395.59
2022-09-24T12:53:42.618Z,100394.53
2022-09-24T12:56:12.549Z,100393.19
2022-09-24T12:58:43.479Z,100390.78
2022-09-24T13:01:27.237Z,100382.97
2022-09-24T13:04:05.359Z,100390.09
2022-09-24T13:06:37.079Z,100385.22
2022-09-24T13:09:26.057Z,100382.25
2022-09-24T13:12:07.577Z,100381.19
2022-09-24T13:14:39.502Z,100388.75
2022-09-24T13:17:08.689Z,100383.31
2022-09-24T13:19:43.052Z,100387.69
2022-09-24T13:22:24.454Z,100379.88
2022-09-24T13:24:56.755Z,100379.72
2022-09-24T13:27:37.938Z,100382.97
2022-09-24T13:30:16.365Z,100385.94
2022-09-24T13:32:50.307Z,100378.56
2022-09-24T13:35:23.838Z,100386.91
2022-09-24T13:37:57.007Z,100388.50
2022-09-24T13:40:30.019Z,100378.94
2022-09-24T13:43:05.490Z,100382.41
2022-09-24T13:45:37.437Z,100382.63
2022-09-24T13:48:29.720Z,100377.13
2022-09-24T13:50:58.258Z,100370.19
2022-09-24T13:53:32.471Z,100384.56
2022-09-24T13:56:04.124Z,100379.06
2022-09-24T13:58:34.280Z,100381.53
2022-09-24T14:01:10.160Z,100379.97
2022-09-24T14:03:41.853Z,100385.63
2022-09-24T14:06:13.612Z,100383.16
2022-09-24T14:08:46.919Z,100380.53
2022-09-24T14:11:24.391Z,100371.63
2022-09-24T14:13:52.597Z,100376.25
2022-09-24T14:16:22.879Z,100378.19
2022-09-24T14:19:02.906Z,100387.47
2022-09-24T14:21:36.686Z,100388.53
2022-09-24T14:24:09.446Z,100383.28
2022-09-24T14:26:43.875Z,100387.34
2022-09-24T14:29:17.215Z,100383.41
2022-09-24T14:31:47.418Z,100380.41
2022-09-24T14:34:35.126Z,100388.78
2022-09-24T14:37:11.486Z,100391.75
2022-09-24T14:39:44.626Z,100379.78
2022-09-24T14:42:21.740Z,100378.63
2022-09-24T14:44:51.687Z,100384.81
2022-09-24T14:47:27.581Z,100388.50
2022-09-24T14:49:56.748Z,100381.41
2022-09-24T14:52:30.459Z,100381.31
2022-09-24T14:55:14.331Z,100376.34
2022-09-24T14:57:48.077Z,100372.94
2022-09-24T15:00:25.012Z,100372.94
2022-09-24T15:02:59.612Z,100373.44
2022-09-24T15:05:51.222Z,100367.72
2022-09-24T15:08:28.660Z,100372.56
2022-09-24T15:11:00.769Z,100354.78
2022-09-24T15:13:34.707Z,100364.22
2022-09-24T15:16:08.491Z,100366.59
2022-09-24T15:18:38.320Z,100365.47
2022-09-24T15:21:09.047Z,100366.19
2022-09-24T15:23:37.550Z,100361.50
2022-09-24T15:26:07.893Z,100347.59
2022-09-24T15:28:36.331Z,100355.94
2022-09-24T15:31:05.451Z,100364.06
2022-09-24T15:33:33.595Z,100362.09
2022-09-24T15:36:01.696Z,100368.00
2022-09-24T15:38:29.962Z,100370.59
2022-09-24T15:40:59.416Z,100376.97
2022-09-24T15:43:31.224Z,100372.09
2022-09-24T15:45:59.312Z,100374.69
2022-09-24T15:48:27.578Z,100371.63
2022-09-24T15:50:56.173Z,100364.84
2022-09-24T15:53:27.307Z,100373.16
2022-09-24T15:55:57.996Z,100383.16
2022-09-24T15:58:26.678Z,100383.78
2022-09-24T16:00:56.542Z,100382.56
2022-09-24T16:03:27.674Z,100383.47
2022-09-24T16:05:57.184Z,100382.75
2022-09-24T16:08:25.425Z,100378.00
2022-09-24T16:10:54.014Z,100373.97
2022-09-24T16:13:23.455Z,100380.09
2022-09-24T16:15:51.606Z,100383.19
2022-09-24T16:18:22.283Z,100390.84
2022-09-24T16:20:50.290Z,100388.28
2022-09-24T16:23:19.474Z,100387.13
2022-09-24T16:25:56.659Z,100375.31
2022-09-24T16:28:25.589Z,100375.13
2022-09-24T16:30:53.942Z,100383.53
2022-09-24T16:33:24.544Z,100378.75
2022-09-24T16:35:53.086Z,100378.66
2022-09-24T16:38:23.075Z,100379.63
2022-09-24T16:41:00.761Z,100376.22
2022-09-24T16:43:28.989Z,100383.19
2022-09-24T16:46:01.860Z,100384.94
2022-09-24T16:48:31.976Z,100385.91
2022-09-24T16:51:04.608Z,100385.19
2022-09-24T16:53:34.382Z,100380.25
2022-09-24T16:56:07.964Z,100390.97
2022-09-24T16:58:37.164Z,100387.09
2022-09-24T17:01:06.731Z,100383.72
2022-09-24T17:03:37.032Z,100384.75
2022-09-24T17:06:10.707Z,100381.94
2022-09-24T17:08:56.419Z,100386.97
2022-09-24T17:11:24.504Z,100383.31
2022-09-24T17:13:52.496Z,100390.47
2022-09-24T17:16:20.638Z,100375.00
2022-09-24T17:18:50.451Z,100384.63
2022-09-24T17:21:18.518Z,100386.34
2022-09-24T17:23:48.781Z,100395.16
2022-09-24T17:26:20.367Z,100395.84
2022-09-24T17:28:50.031Z,100389.72
2022-09-24T17:31:21.523Z,100383.41
2022-09-24T17:33:57.167Z,100391.72
2022-09-24T17:36:26.727Z,100392.41
2022-09-24T17:38:57.018Z,100391.25
2022-09-24T17:41:25.116Z,100392.75
2022-09-24T17:43:53.338Z,100387.44
2022-09-24T17:46:23.118Z,100393.91
2022-09-24T17:48:54.568Z,100390.47
2022-09-24T17:51:24.928Z,100384.13
2022-09-24T17:53:57.468Z,100386.13
2022-09-24T17:56:27.369Z,100385.84
2022-09-24T17:58:57.221Z,100390.25
2022-09-24T18:01:27.976Z,100384.59
2022-09-24T18:04:04.300Z,100395.91
2022-09-24T18:06:33.772Z,100394.75
2022-09-24T18:09:03.121Z,100393.66
2022-09-24T18:11:33.650Z,100403.47
2022-09-24T18:14:03.534Z,100401.28
2022-09-24T18:16:33.300Z,100408.63
2022-09-24T18:19:04.015Z,100407.28
2022-09-24T18:21:32.523Z,100408.38
2022-09-24T18:24:01.978Z,100410.09
2022-09-24T18:26:32.628Z,100409.91
2022-09-24T18:29:02.403Z,100409.41
2022-09-24T18:31:31.923Z,100404.66
2022-09-24T18:34:04.867Z,100401.00
2022-09-24T18:36:37.466Z,100402.09
2022-09-24T18:39:12.001Z,100415.81
2022-09-24T18:41:41.176Z,100417.28
2022-09-24T18:44:10.536Z,100413.59
2022-09-24T18:46:39.294Z,100419.00
2022-09-24T18:49:08.154Z,100423.16
2022-09-24T18:51:38.778Z,100425.09
2022-09-24T18:54:09.101Z,100415.81
2022-09-24T18:56:37.432Z,100420.78
2022-09-24T18:59:12.143Z,100421.06
2022-09-24T19:01:42.264Z,100421.88
2022-09-24T19:04:11.617Z,100415.50
2022-09-24T19:06:43.436Z,100420.47
2022-09-24T19:09:13.451Z,100428.97
2022-09-24T19:11:42.342Z,100426.72
2022-09-24T19:14:11.514Z,100424.47
2022-09-24T19:16:40.425Z,100427.56
2022-09-24T19:19:08.574Z,100426.38
2022-09-24T19:21:37.781Z,100428.44
2022-09-24T19:24:08.497Z,100418.53
2022-09-24T19:26:41.218Z,100432.16
2022-09-24T19:29:09.456Z,100423.75
2022-09-24T19:31:39.812Z,100426.84
2022-09-24T19:34:10.131Z,100418.59
2022-09-24T19:36:43.864Z,100422.31
2022-09-24T19:39:15.403Z,100425.47
2022-09-24T19:41:44.426Z,100415.16
2022-09-24T19:44:19.029Z,100411.22
2022-09-24T19:46:47.258Z,100418.03
2022-09-24T19:49:15.562Z,100411.06
2022-09-24T19:51:43.637Z,100419.13
2022-09-24T19:54:13.217Z,100423.03
2022-09-24T19:56:41.664Z,100423.69
2022-09-24T19:59:33.303Z,100408.63
2022-09-24T20:02:02.983Z,100411.31
2022-09-24T20:04:32.612Z,100417.31
2022-09-24T20:07:05.632Z,100420.66
2022-09-24T20:09:36.127Z,100415.50
2022-09-24T20:12:04.962Z,100422.94
2022-09-24T20:14:33.859Z,100414.91
2022-09-24T20:17:02.035Z,100416.75
2022-09-24T20:19:30.723Z,100428.69
2022-09-24T20:21:59.055Z,100423.34
2022-09-24T20:24:27.130Z,100428.31
2022-09-24T20:27:14.348Z,100420.88
2022-09-24T20:29:44.482Z,100425.00
2022-09-24T20:32:15.518Z,100422.97
2022-09-24T20:34:43.943Z,100421.28
2022-09-24T20:37:15.289Z,100429.94
2022-09-24T20:39:43.560Z,100420.28
2022-09-24T20:42:14.165Z,100425.63
2022-09-24T20:44:42.653Z,100428.50
2022-09-24T20:47:11.417Z,100418.81
2022-09-24T20:49:39.490Z,100424.38
2022-09-24T20:52:07.929Z,100429.31
2022-09-24T20:54:37.434Z,100428.91
2022-09-24T20:57:05.628Z,100433.03
2022-09-24T20:59:35.444Z,100432.84
2022-09-24T21:02:03.663Z,100428.31
2022-09-24T21:04:37.854Z,100429.09
2022-09-24T21:07:05.940Z,100425.63
2022-09-24T21:09:34.062Z,100421.69
2022-09-24T21:12:03.425Z,100422.31
2022-09-24T21:14:31.534Z,100416.13
2022-09-24T21:17:01.025Z,100421.50
2022-09-24T21:19:29.185Z,100413.66
2022-09-24T21:21:57.289Z,100418.38
2022-09-24T21:24:31.139Z,100415.50
2022-09-24T21:27:00.327Z,100418.19
2022-09-24T21:29:28.432Z,100414.47
2022-09-24T21:31:56.506Z,100409.94
2022-09-24T21:34:25.997Z,100420.22
2022-09-24T21:36:55.058Z,100413.00
2022-09-24T21:39:24.553Z,100423.31
2022-09-24T21:41:55.562Z,100424.91
2022-09-24T21:44:23.567Z,100428.41
2022-09-24T21:46:52.586Z,100430.22
2022-09-24T21:49:22.897Z,100428.38
2022-09-24T21:51:57.679Z,100425.28
2022-09-24T21:54:25.747Z,100425.66
2022-09-24T21:56:54.449Z,100427.06
2022-09-24T21:59:40.428Z,100429.34
2022-09-24T22:02:10.256Z,100423.75
2022-09-24T22:04:39.413Z,100422.31
2022-09-24T22:07:09.058Z,100413.44
2022-09-24T22:09:37.317Z,100420.00
2022-09-24T22:12:06.775Z,100420.16
2022-09-24T22:14:35.346Z,100415.84
2022-09-24T22:17:04.052Z,100419.72
2022-09-24T22:19:32.271Z,100422.16
2022-09-24T22:22:00.396Z,100424.59
2022-09-24T22:24:30.142Z,100408.97
2022-09-24T22:26:58.227Z,100413.03
2022-09-24T22:29:27.003Z,100408.91
2022-09-24T22:31:54.983Z,100410.94
2022-09-24T22:34:47.231Z,100403.97
2022-09-24T22:37:15.263Z,100410.94
2022-09-24T22:39:45.003Z,100405.97
2022-09-24T22:42:13.746Z,100407.81
2022-09-24T22:44:41.804Z,100407.19
2022-09-24T22:47:09.801Z,100409.03
2022-09-24T22:49:38.534Z,100406.78
2022-09-24T22:52:06.847Z,100401.44
2022-09-24T22:54:35.183Z,100403.66
2022-09-24T22:57:04.787Z,100406.31
2022-09-24T22:59:33.016Z,100405.69
2022-09-24T23:02:01.089Z,100405.88
2022-09-24T23:04:30.218Z,100402.38
2022-09-24T23:06:58.262Z,100402.78
2022-09-24T23:09:26.391Z,100402.16
2022-09-24T23:11:56.608Z,100402.94
2022-09-24T23:14:26.076Z,100398.38
2022-09-24T23:16:54.562Z,100408.63
2022-09-24T23:19:22.728Z,100401.63
2022-09-24T23:21:50.775Z,100396.84
2022-09-24T23:24:20.337Z,100393.56
2022-09-24T23:26:48.674Z,100393.31
2022-09-24T23:29:16.941Z,100394.53
2022-09-24T23:31:46.512Z,100393.25
2022-09-24T23:34:15.061Z,100389.94
2022-09-24T23:36:45.200Z,100387.88
2022-09-24T23:39:14.029Z,100380.63
2022-09-24T23:41:42.164Z,100386.56
2022-09-24T23:44:10.543Z,100387.31
2022-09-24T23:46:38.900Z,100388.06
2022-09-24T23:49:08.470Z,100385.34
2022-09-24T23:51:36.983Z,100392.91
2022-09-24T23:54:05.518Z,100379.53
2022-09-24T23:56:37.298Z,100384.03
2022-09-24T23:59:05.599Z,100385.22
